Time;durP1;ratioP1;P1;durP2;ratioP2;P2;SDS_P1;SDS_P2;PMS_P1;PMS_P2;Temp;Humidity;BMP_temperature;BMP_pressure;BME280_temperature;BME280_humidity;BME280_pressure;Samples;Min_cycle;Max_cycle;Signal;HPM_P1;HPM_P2
2021/03/23 00:00:21;;;;;;;12.07;6.45;;;;;;;-139.48;100.00;61774.03;5033452;28;20052;-68
2021/03/23 00:03:07;;;;;;;12.25;5.90;;;;;;;-139.48;100.00;61774.03;5033333;28;20052;-67
2021/03/23 00:05:51;;;;;;;17.23;7.85;;;;;;;-139.48;100.00;61774.03;5034558;28;20060;-68
2021/03/23 00:08:37;;;;;;;16.30;6.35;;;;;;;-139.48;100.00;61774.03;5036181;28;20107;-68
2021/03/23 00:11:23;;;;;;;12.30;6.20;;;;;;;-139.48;100.00;61774.03;5037134;28;20053;-67
2021/03/23 00:14:10;;;;;;;12.60;5.80;;;;;;;-139.48;100.00;61774.03;5035856;28;20055;-67
2021/03/23 00:16:54;;;;;;;9.32;5.38;;;;;;;-139.48;100.00;61774.03;5037039;28;20099;-68
2021/03/23 00:19:38;;;;;;;14.00;5.82;;;;;;;-139.48;100.00;61774.03;5021666;28;20108;-67
2021/03/23 00:22:22;;;;;;;10.73;5.53;;;;;;;-139.48;100.00;61774.03;5021719;28;20458;-68
2021/03/23 00:25:08;;;;;;;8.25;5.10;;;;;;;-139.48;100.00;61774.03;5021902;28;20056;-68
2021/03/23 00:27:53;;;;;;;15.75;7.05;;;;;;;-139.48;100.00;61774.03;5035811;28;20461;-68
2021/03/23 00:30:37;;;;;;;11.73;6.70;;;;;;;-139.48;100.00;61774.03;5036615;28;20052;-68
2021/03/23 00:33:22;;;;;;;15.93;7.20;;;;;;;-139.48;100.00;61774.03;5036293;28;20414;-67
2021/03/23 00:36:06;;;;;;;10.15;6.05;;;;;;;-139.48;100.00;61774.03;5035433;28;20121;-68
2021/03/23 00:38:51;;;;;;;8.30;4.90;;;;;;;-139.48;100.00;61774.03;5021628;28;20532;-68
2021/03/23 00:41:37;;;;;;;8.70;4.60;;;;;;;-139.48;100.00;61774.03;5007439;28;20061;-67
2021/03/23 00:44:22;;;;;;;11.27;5.25;;;;;;;-139.48;100.00;61774.03;5035631;28;20060;-68
2021/03/23 00:47:06;;;;;;;9.07;5.30;;;;;;;-139.48;100.00;61774.03;5021380;28;20140;-68
2021/03/23 00:49:51;;;;;;;10.90;4.95;;;;;;;-139.48;100.00;61774.03;5036244;28;20060;-68
2021/03/23 00:52:35;;;;;;;9.98;4.90;;;;;;;-139.48;100.00;61774.03;5035394;28;20124;-67
2021/03/23 00:55:20;;;;;;;9.15;5.45;;;;;;;-139.48;100.00;61774.03;5035375;28;20048;-68
2021/03/23 00:58:04;;;;;;;10.30;5.30;;;;;;;-139.48;100.00;61774.03;5021176;28;20055;-68
2021/03/23 01:00:48;;;;;;;12.98;6.05;;;;;;;-139.48;100.00;61774.03;5021301;28;20452;-67
2021/03/23 01:03:32;;;;;;;15.38;6.80;;;;;;;-139.48;100.00;61774.03;5036057;28;20107;-67
2021/03/23 01:06:16;;;;;;;13.80;6.57;;;;;;;-139.48;100.00;61774.03;5036141;28;20055;-68
2021/03/23 01:09:00;;;;;;;19.27;7.28;;;;;;;-139.48;100.00;61774.03;5034846;28;20465;-67
2021/03/23 01:11:45;;;;;;;13.50;6.22;;;;;;;-139.48;100.00;61774.03;5036087;28;20091;-68
2021/03/23 01:14:29;;;;;;;11.13;6.30;;;;;;;-139.48;100.00;61774.03;5035673;28;20068;-67
2021/03/23 01:17:13;;;;;;;12.30;5.75;;;;;;;-139.48;100.00;61774.03;5019697;28;20119;-68
2021/03/23 01:19:57;;;;;;;10.32;5.72;;;;;;;-139.48;100.00;61774.03;5020937;28;20564;-68
2021/03/23 01:22:41;;;;;;;17.42;5.72;;;;;;;-139.48;100.00;61774.03;5020846;28;20066;-67
2021/03/23 01:25:25;;;;;;;15.95;6.40;;;;;;;-139.48;100.00;61774.03;5034740;28;20083;-68
2021/03/23 01:28:10;;;;;;;14.13;5.45;;;;;;;-139.48;100.00;61774.03;5006625;28;20140;-68
2021/03/23 01:30:54;;;;;;;13.05;6.20;;;;;;;-139.48;100.00;61774.03;5020752;28;20060;-67
2021/03/23 01:33:39;;;;;;;18.35;6.80;;;;;;;-139.48;100.00;61774.03;5035169;28;20052;-68
2021/03/23 01:36:23;;;;;;;11.65;6.35;;;;;;;-139.48;100.00;61774.03;5034627;28;20120;-68
2021/03/23 01:39:08;;;;;;;13.30;5.60;;;;;;;-139.48;100.00;61774.03;5035208;28;20103;-67
2021/03/23 01:44:33;;;;;;;17.65;6.25;;;;;;;-139.48;100.00;61774.03;5083584;23;20265;-69
2021/03/23 01:47:18;;;;;;;15.02;6.32;;;;;;;-139.48;100.00;61774.03;5014990;28;20056;-70
2021/03/23 01:50:02;;;;;;;11.07;5.65;;;;;;;-139.48;100.00;61774.03;5015627;28;20053;-68
2021/03/23 01:52:55;;;;;;;10.23;5.68;;;;;;;-139.48;100.00;61774.03;5000648;28;20100;-69
2021/03/23 01:55:39;;;;;;;10.35;5.57;;;;;;;-139.48;100.00;61774.03;5014763;28;20088;-69
2021/03/23 01:58:24;;;;;;;11.00;5.88;;;;;;;-139.48;100.00;61774.03;5027580;23;20474;-68
2021/03/23 02:01:10;;;;;;;10.82;5.72;;;;;;;-139.48;100.00;61774.03;4986734;28;20124;-69
2021/03/23 02:03:54;;;;;;;13.75;5.18;;;;;;;-139.48;100.00;61774.03;4986693;28;20048;-69
2021/03/23 02:06:46;;;;;;;14.70;6.38;;;;;;;-139.48;100.00;61774.03;5000353;28;20064;-67
2021/03/23 02:09:33;;;;;;;12.98;6.03;;;;;;;-139.48;100.00;61774.03;5015005;28;20103;-68
2021/03/23 02:12:19;;;;;;;12.00;5.40;;;;;;;-139.48;100.00;61774.03;5000006;28;20088;-68
2021/03/23 02:15:04;;;;;;;13.82;5.72;;;;;;;-139.48;100.00;61774.03;5000287;28;20104;-69
2021/03/23 02:18:24;;;;;;;15.27;6.15;;;;;;;-139.48;100.00;61774.03;4999853;28;20096;-69
2021/03/23 02:21:11;;;;;;;13.68;6.00;;;;;;;-139.48;100.00;61774.03;4908698;29;20106;-69
2021/03/23 02:23:55;;;;;;;14.18;6.03;;;;;;;-139.48;100.00;61774.03;5014944;28;20045;-69
2021/03/23 02:26:39;;;;;;;14.13;6.53;;;;;;;-139.48;100.00;61774.03;4999965;28;20095;-68
2021/03/23 02:29:23;;;;;;;13.65;6.35;;;;;;;-139.48;100.00;61774.03;4999624;28;20045;-68
2021/03/23 02:32:08;;;;;;;11.57;5.80;;;;;;;-139.48;100.00;61774.03;5014500;28;20156;-69
2021/03/23 02:34:52;;;;;;;12.45;5.13;;;;;;;-139.48;100.00;61774.03;4986135;28;20617;-69
2021/03/23 02:37:36;;;;;;;12.85;5.60;;;;;;;-139.48;100.00;61774.03;4999730;28;20137;-69
2021/03/23 02:40:20;;;;;;;12.35;6.15;;;;;;;-139.48;100.00;61774.03;4999460;28;20089;-69
2021/03/23 02:43:04;;;;;;;10.60;5.55;;;;;;;-139.48;100.00;61774.03;4999451;28;20057;-69
2021/03/23 02:45:52;;;;;;;11.95;5.43;;;;;;;-139.48;100.00;61774.03;5014580;28;20544;-69
2021/03/23 02:48:36;;;;;;;16.83;6.32;;;;;;;-139.48;100.00;61774.03;4985713;28;20048;-69
2021/03/23 02:51:20;;;;;;;10.43;5.63;;;;;;;-139.48;100.00;61774.03;4999595;28;20422;-68
2021/03/23 02:54:04;;;;;;;11.43;5.97;;;;;;;-139.48;100.00;61774.03;5014431;28;20052;-69
2021/03/23 02:56:48;;;;;;;;;;;;;;;-139.48;100.00;61774.03;5014340;28;20129;-68
2021/03/23 02:59:32;;;;;;;11.93;5.70;;;;;;;-139.48;100.00;61774.03;4999135;28;19920;-69
2021/03/23 03:02:16;;;;;;;;;;;;;;;-139.48;100.00;61774.03;4999881;28;20096;-68
2021/03/23 03:05:00;;;;;;;8.03;4.93;;;;;;;-139.48;100.00;61774.03;4999153;28;19920;-69
2021/03/23 03:07:44;;;;;;;12.60;5.88;;;;;;;-139.48;100.00;61774.03;5013865;28;20414;-68
2021/03/23 03:10:28;;;;;;;10.63;5.35;;;;;;;-139.48;100.00;61774.03;4999300;28;20053;-69
2021/03/23 03:13:12;;;;;;;14.13;6.18;;;;;;;-139.48;100.00;61774.03;5014132;28;20464;-69
2021/03/23 03:15:56;;;;;;;16.27;6.65;;;;;;;-139.48;100.00;61774.03;5014094;28;20047;-68
2021/03/23 03:18:40;;;;;;;12.88;6.60;;;;;;;-139.48;100.00;61774.03;5013584;28;20044;-68
2021/03/23 03:21:24;;;;;;;13.90;6.32;;;;;;;-139.48;100.00;61774.03;5014017;28;20067;-69
2021/03/23 03:24:08;;;;;;;11.55;6.07;;;;;;;-139.48;100.00;61774.03;5013962;28;20120;-68
2021/03/23 03:26:52;;;;;;;11.00;5.47;;;;;;;-139.48;100.00;61774.03;5013865;28;20120;-69
2021/03/23 03:29:36;;;;;;;14.80;6.63;;;;;;;-139.48;100.00;61774.03;4998733;28;20088;-69
2021/03/23 03:32:20;;;;;;;14.45;6.15;;;;;;;-139.48;100.00;61774.03;4998665;28;20084;-69
2021/03/23 03:35:06;;;;;;;15.07;6.35;;;;;;;-139.48;100.00;61774.03;4998959;28;20528;-69
2021/03/23 03:37:50;;;;;;;13.38;6.28;;;;;;;-139.48;100.00;61774.03;4998646;28;20096;-68
2021/03/23 03:40:43;;;;;;;12.77;6.38;;;;;;;-139.48;100.00;61774.03;4997894;28;20057;-69
2021/03/23 03:43:28;;;;;;;11.50;6.38;;;;;;;-139.48;100.00;61774.03;5013815;28;20056;-69
2021/03/23 03:46:13;;;;;;;10.95;6.10;;;;;;;-139.48;100.00;61774.03;5013480;28;20177;-69
2021/03/23 03:48:57;;;;;;;12.23;6.25;;;;;;;-139.48;100.00;61774.03;4998846;28;20520;-69
2021/03/23 03:51:41;;;;;;;16.65;6.60;;;;;;;-139.48;100.00;61774.03;4984825;28;20579;-68
2021/03/23 03:54:25;;;;;;;14.35;7.15;;;;;;;-139.48;100.00;61774.03;4985285;28;20573;-69
2021/03/23 03:57:09;;;;;;;20.13;6.45;;;;;;;-139.48;100.00;61774.03;4998507;28;20572;-68
2021/03/23 03:59:53;;;;;;;17.50;7.00;;;;;;;-139.48;100.00;61774.03;5013271;28;20040;-69
2021/03/23 04:02:36;;;;;;;12.05;5.95;;;;;;;-139.48;100.00;61774.03;5013572;28;20057;-69
2021/03/23 04:05:22;;;;;;;10.48;6.30;;;;;;;-139.48;100.00;61774.03;4998897;28;20065;-68
2021/03/23 04:08:09;;;;;;;13.57;6.45;;;;;;;-139.48;100.00;61774.03;4998524;28;20056;-69
2021/03/23 04:10:54;;;;;;;11.13;6.43;;;;;;;-139.48;100.00;61774.03;4998412;28;20076;-69
2021/03/23 04:13:38;;;;;;;14.20;5.57;;;;;;;-139.48;100.00;61774.03;4984866;28;20119;-69
2021/03/23 04:16:22;;;;;;;10.73;6.00;;;;;;;-139.48;100.00;61774.03;5013244;28;20065;-69
2021/03/23 04:19:06;;;;;;;11.27;6.25;;;;;;;-139.48;100.00;61774.03;4998547;28;20049;-69
2021/03/23 04:21:50;;;;;;;14.40;6.15;;;;;;;-139.48;100.00;61774.03;5013133;28;20072;-68
2021/03/23 04:24:34;;;;;;;15.77;6.28;;;;;;;-139.48;100.00;61774.03;5013078;28;20053;-68
2021/03/23 04:27:18;;;;;;;15.20;6.60;;;;;;;-139.48;100.00;61774.03;5013234;28;20049;-69
2021/03/23 04:30:07;;;;;;;15.93;7.43;;;;;;;-139.48;100.00;61774.03;5013301;28;20401;-68
2021/03/23 04:32:53;;;;;;;12.82;6.25;;;;;;;-139.48;100.00;61774.03;4998411;28;20048;-66
2021/03/23 04:35:48;;;;;;;11.15;7.03;;;;;;;-139.48;100.00;61774.03;5013015;28;20056;-68
2021/03/23 04:38:33;;;;;;;;;;;;;;;-139.48;100.00;61774.03;5013295;28;20513;-69
2021/03/23 04:41:17;;;;;;;15.07;7.63;;;;;;;-139.48;100.00;61774.03;4998408;28;19944;-68
2021/03/23 04:44:02;;;;;;;13.38;6.20;;;;;;;-139.48;100.00;61774.03;4998096;28;20460;-68
2021/03/23 04:46:46;;;;;;;11.75;6.55;;;;;;;-139.48;100.00;61774.03;4998242;28;20048;-69
2021/03/23 04:49:30;;;;;;;16.77;6.60;;;;;;;-139.48;100.00;61774.03;5013145;28;20052;-69
2021/03/23 04:52:14;;;;;;;13.75;6.50;;;;;;;-139.48;100.00;61774.03;5014781;28;20053;-68
2021/03/23 04:54:58;;;;;;;17.25;6.97;;;;;;;-139.48;100.00;61774.03;5016659;28;20057;-69
2021/03/23 04:57:42;;;;;;;15.05;7.28;;;;;;;-139.48;100.00;61774.03;4987501;28;20072;-68
2021/03/23 05:00:26;;;;;;;14.05;7.40;;;;;;;-139.48;100.00;61774.03;5016399;28;20048;-68
2021/03/23 05:03:18;;;;;;;14.27;7.38;;;;;;;-139.48;100.00;61774.03;5001619;28;20068;-69
2021/03/23 05:06:07;;;;;;;17.88;7.63;;;;;;;-139.48;100.00;61774.03;4987570;28;20096;-68
2021/03/23 05:08:52;;;;;;;13.65;6.85;;;;;;;-139.48;100.00;61774.03;5016045;28;20148;-68
2021/03/23 05:11:36;;;;;;;16.45;7.03;;;;;;;-139.48;100.00;61774.03;4987731;28;20095;-68
2021/03/23 05:14:19;;;;;;;11.13;6.20;;;;;;;-139.48;100.00;61774.03;5016267;28;20057;-68
2021/03/23 05:17:04;;;;;;;14.48;7.55;;;;;;;-139.48;100.00;61774.03;5015955;28;20418;-69
2021/03/23 05:19:48;;;;;;;19.80;7.20;;;;;;;-139.48;100.00;61774.03;5001279;28;20044;-69
2021/03/23 05:22:32;;;;;;;18.70;7.32;;;;;;;-139.48;100.00;61774.03;5016098;28;20108;-69
2021/03/23 05:25:16;;;;;;;13.30;7.13;;;;;;;-139.48;100.00;61774.03;5001179;28;20100;-69
2021/03/23 05:27:59;;;;;;;16.00;7.85;;;;;;;-139.48;100.00;61774.03;5015959;28;20148;-69
2021/03/23 05:30:44;;;;;;;11.32;7.55;;;;;;;-139.48;100.00;61774.03;4987346;28;20161;-69
2021/03/23 05:33:28;;;;;;;12.35;6.95;;;;;;;-139.48;100.00;61774.03;4987572;28;20088;-68
2021/03/23 05:36:12;;;;;;;18.05;7.47;;;;;;;-139.48;100.00;61774.03;4987252;28;20049;-69
2021/03/23 05:38:56;;;;;;;17.83;7.13;;;;;;;-139.48;100.00;61774.03;5015409;28;20049;-67
2021/03/23 05:41:47;;;;;;;14.35;7.68;;;;;;;-139.48;100.00;61774.03;5000898;28;20104;-69
2021/03/23 05:44:47;;;;;;;18.13;7.57;;;;;;;-139.48;100.00;61774.03;5015675;28;20053;-69
2021/03/23 05:47:37;;;;;;;13.40;6.38;;;;;;;-139.48;100.00;61774.03;5015281;28;20129;-69
2021/03/23 05:50:25;;;;;;;14.15;7.00;;;;;;;-139.48;100.00;61774.03;5000753;28;20052;-67
2021/03/23 05:53:25;;;;;;;13.10;7.25;;;;;;;-139.48;100.00;61774.03;4986685;28;20116;-70
2021/03/23 05:56:09;;;;;;;19.27;7.32;;;;;;;-139.48;100.00;61774.03;5000589;28;20552;-69
2021/03/23 05:58:54;;;;;;;17.33;7.90;;;;;;;-139.48;100.00;61774.03;4986480;28;20123;-69
2021/03/23 06:01:45;;;;;;;14.20;7.88;;;;;;;-139.48;100.00;61774.03;4986511;28;20053;-69
2021/03/23 06:04:52;;;;;;;13.23;7.65;;;;;;;-139.48;100.00;61774.03;4986081;28;20053;-69
2021/03/23 06:07:38;;;;;;;13.60;7.47;;;;;;;-139.48;100.00;61774.03;5014237;28;20053;-69
2021/03/23 06:10:22;;;;;;;15.40;6.95;;;;;;;-139.48;100.00;61774.03;5000722;28;20040;-69
2021/03/23 06:13:22;;;;;;;17.13;8.20;;;;;;;-139.48;100.00;61774.03;5015004;28;20143;-69
2021/03/23 06:16:43;;;;;;;18.23;10.48;;;;;;;-139.48;100.00;61774.03;5000435;28;20099;-69
2021/03/23 06:19:45;;;;;;;16.92;10.18;;;;;;;-139.48;100.00;61774.03;4999915;28;20133;-68
2021/03/23 06:22:54;;;;;;;16.75;8.35;;;;;;;-139.48;100.00;61774.03;5014733;28;20415;-69
2021/03/23 06:25:50;;;;;;;19.10;9.63;;;;;;;-139.48;100.00;61774.03;5014695;28;20056;-69
2021/03/23 06:28:59;;;;;;;19.45;10.23;;;;;;;-139.48;100.00;61774.03;4999775;28;20125;-68
2021/03/23 06:32:05;;;;;;;20.95;9.38;;;;;;;-139.48;100.00;61774.03;4986258;28;20049;-69
2021/03/23 06:34:54;;;;;;;16.27;9.48;;;;;;;-139.48;100.00;61774.03;5014455;28;20095;-69
2021/03/23 06:37:40;;;;;;;15.85;8.80;;;;;;;-139.48;100.00;61774.03;5014306;28;20044;-69
2021/03/23 06:40:30;;;;;;;17.55;10.07;;;;;;;-139.48;100.00;61774.03;5014417;28;20040;-69
2021/03/23 06:43:16;;;;;;;20.05;9.55;;;;;;;-139.48;100.00;61774.03;5014447;28;20080;-69
2021/03/23 06:46:25;;;;;;;14.43;9.02;;;;;;;-139.48;100.00;61774.03;4999501;28;20053;-69
2021/03/23 06:49:13;;;;;;;19.70;9.25;;;;;;;-139.48;100.00;61774.03;4999431;28;20121;-69
2021/03/23 06:52:00;;;;;;;18.90;9.93;;;;;;;-139.48;100.00;61774.03;5014545;28;20095;-69
2021/03/23 06:55:04;;;;;;;22.55;10.63;;;;;;;-139.48;100.00;61774.03;4999213;28;20418;-68
2021/03/23 06:57:49;;;;;;;23.08;10.23;;;;;;;-139.48;100.00;61774.03;5014076;28;20045;-69
2021/03/23 07:00:33;;;;;;;20.40;10.52;;;;;;;-139.48;100.00;61774.03;4999345;28;20104;-69
2021/03/23 07:03:25;;;;;;;22.67;11.27;;;;;;;-139.48;100.00;61774.03;4985759;28;20422;-69
2021/03/23 07:06:22;;;;;;;19.88;10.25;;;;;;;-139.48;100.00;61774.03;5014240;28;20184;-69
2021/03/23 07:09:18;;;;;;;17.33;10.18;;;;;;;-139.48;100.00;61774.03;5013974;28;20084;-69
2021/03/23 07:12:04;;;;;;;22.02;11.13;;;;;;;-139.48;100.00;61774.03;4999401;28;20047;-69
2021/03/23 07:14:48;;;;;;;21.55;11.35;;;;;;;-139.48;100.00;61774.03;4999129;28;20048;-69
2021/03/23 07:17:33;;;;;;;19.92;11.02;;;;;;;-139.48;100.00;61774.03;5013720;28;20056;-70
2021/03/23 07:20:29;;;;;;;22.15;12.18;;;;;;;-139.48;100.00;61774.03;4999120;28;20045;-69
2021/03/23 07:23:33;;;;;;;18.50;11.30;;;;;;;-139.48;100.00;61774.03;5013957;28;20413;-69
2021/03/23 07:26:34;;;;;;;25.13;12.30;;;;;;;-139.48;100.00;61774.03;5013263;28;20509;-69
2021/03/23 07:29:44;;;;;;;21.08;11.50;;;;;;;-139.48;100.00;61774.03;4999077;28;20425;-69
2021/03/23 07:32:40;;;;;;;21.40;11.60;;;;;;;-139.48;100.00;61774.03;4998734;28;20045;-69
2021/03/23 07:35:28;;;;;;;25.17;13.07;;;;;;;-139.48;100.00;61774.03;4985209;28;20141;-69
2021/03/23 07:38:22;;;;;;;20.83;11.70;;;;;;;-139.48;100.00;61774.03;4998462;28;20053;-69
2021/03/23 07:41:06;;;;;;;;;;;;;;;-139.48;100.00;61774.03;5013158;28;20045;-69
2021/03/23 07:44:02;;;;;;;25.60;13.07;;;;;;;-139.48;100.00;61774.03;4985145;28;20380;-69
2021/03/23 07:46:52;;;;;;;28.98;13.48;;;;;;;-139.48;100.00;61774.03;4998888;28;20131;-69
2021/03/23 07:49:47;;;;;;;24.23;12.45;;;;;;;-139.48;100.00;61774.03;5012642;28;20505;-68
2021/03/23 07:52:43;;;;;;;24.45;13.40;;;;;;;-139.48;100.00;61774.03;5012334;28;20096;-69
2021/03/23 07:55:27;;;;;;;23.80;13.07;;;;;;;-139.48;100.00;61774.03;4998723;28;20049;-69
2021/03/23 07:58:42;;;;;;;22.65;12.80;;;;;;;-139.48;100.00;61774.03;5033740;23;20580;-67
2021/03/23 08:01:37;;;;;;;19.08;12.38;;;;;;;-139.48;100.00;61774.03;5013813;28;20056;-67
2021/03/23 08:04:48;;;;;;;19.33;12.45;;;;;;;-139.48;100.00;61774.03;5012615;28;20128;-67
2021/03/23 08:07:41;;;;;;;24.55;12.75;;;;;;;-139.48;100.00;61774.03;5012297;28;20049;-67
2021/03/23 08:10:35;;;;;;;25.92;13.23;;;;;;;-139.48;100.00;61774.03;5012449;28;20041;-67
2021/03/23 08:13:36;;;;;;;25.20;12.20;;;;;;;-139.48;100.00;61774.03;5012413;28;20049;-67
2021/03/23 08:16:39;;;;;;;22.23;12.60;;;;;;;-139.48;100.00;61774.03;5013389;28;20259;-69
2021/03/23 08:19:44;;;;;;;25.42;11.82;;;;;;;-139.48;100.00;61774.03;5012933;28;20040;-68
2021/03/23 08:22:46;;;;;;;21.65;12.00;;;;;;;-139.48;100.00;61774.03;5013439;28;20517;-69
2021/03/23 08:25:29;;;;;;;20.08;12.50;;;;;;;-139.48;100.00;61774.03;5012102;28;20099;-69
2021/03/23 08:28:37;;;;;;;26.67;12.70;;;;;;;-139.48;100.00;61774.03;5016279;28;20099;-69
2021/03/23 08:31:58;;;;;;;18.60;11.07;;;;;;;-139.48;100.00;61774.03;5002262;28;20053;-69
2021/03/23 08:35:10;;;;;;;26.55;12.38;;;;;;;-139.48;100.00;61774.03;5015663;28;20056;-69
2021/03/23 08:38:02;;;;;;;21.95;12.20;;;;;;;-139.48;100.00;61774.03;5001974;28;20104;-69
2021/03/23 08:40:53;;;;;;;21.02;11.70;;;;;;;-139.48;100.00;61774.03;5015663;28;20072;-69
2021/03/23 08:43:43;;;;;;;26.08;12.32;;;;;;;-139.48;100.00;61774.03;5015889;28;20100;-69
2021/03/23 08:46:31;;;;;;;26.70;12.32;;;;;;;-139.48;100.00;61774.03;5015559;28;20088;-69
2021/03/23 08:49:19;;;;;;;19.13;12.18;;;;;;;-139.48;100.00;61774.03;5015429;28;20053;-67
2021/03/23 08:52:17;;;;;;;18.42;11.55;;;;;;;-139.48;100.00;61774.03;5015647;28;20184;-69
2021/03/23 08:55:03;;;;;;;20.80;12.65;;;;;;;-139.48;100.00;61774.03;5015317;28;20124;-69
2021/03/23 08:58:08;;;;;;;21.58;12.45;;;;;;;-139.48;100.00;61774.03;5015321;28;20084;-68
2021/03/23 09:00:57;;;;;;;24.52;12.25;;;;;;;-139.48;100.00;61774.03;5015320;28;20103;-69
2021/03/23 09:03:48;;;;;;;18.90;12.00;;;;;;;-139.48;100.00;61774.03;5016476;28;20114;-69
2021/03/23 09:06:56;;;;;;;20.42;12.32;;;;;;;-139.48;100.00;61774.03;5015324;28;20056;-69
2021/03/23 09:09:42;;;;;;;21.30;11.60;;;;;;;-139.48;100.00;61774.03;5015091;28;20049;-69
2021/03/23 09:12:42;;;;;;;22.48;11.52;;;;;;;-139.48;100.00;61774.03;5015346;28;20488;-69
2021/03/23 09:15:27;;;;;;;21.20;12.55;;;;;;;-139.48;100.00;61774.03;5015240;28;20555;-69
2021/03/23 09:18:11;;;;;;;20.33;12.25;;;;;;;-139.48;100.00;61774.03;5014983;28;20414;-69
2021/03/23 09:21:01;;;;;;;19.60;12.88;;;;;;;-139.48;100.00;61774.03;5015813;28;20056;-68
2021/03/23 09:23:47;;;;;;;22.80;12.07;;;;;;;-139.48;100.00;61774.03;5014757;28;20100;-69
2021/03/23 09:26:30;;;;;;;22.83;11.90;;;;;;;-139.48;100.00;61774.03;5001096;28;20145;-69
2021/03/23 09:29:35;;;;;;;20.48;12.90;;;;;;;-139.48;100.00;61774.03;5015920;28;20057;-69
2021/03/23 09:32:20;;;;;;;;;;;;;;;-139.48;100.00;61774.03;5015148;28;20513;-69
2021/03/23 09:35:15;;;;;;;20.15;12.27;;;;;;;-139.48;100.00;61774.03;5015675;28;19959;-69
2021/03/23 09:38:24;;;;;;;21.15;12.57;;;;;;;-139.48;100.00;61774.03;5014294;28;20129;-68
2021/03/23 09:41:28;;;;;;;22.33;13.70;;;;;;;-139.48;100.00;61774.03;5014717;28;20099;-68
2021/03/23 09:44:19;;;;;;;19.77;12.95;;;;;;;-139.48;100.00;61774.03;5014443;28;20045;-69
2021/03/23 09:47:03;;;;;;;17.23;11.43;;;;;;;-139.48;100.00;61774.03;5015667;28;20049;-69
2021/03/23 09:49:48;;;;;;;19.48;11.65;;;;;;;-139.48;100.00;61774.03;5015593;28;20096;-68
2021/03/23 09:52:34;;;;;;;15.57;9.93;;;;;;;-139.48;100.00;61774.03;5014836;28;20100;-69
2021/03/23 09:55:25;;;;;;;14.10;9.18;;;;;;;-139.48;100.00;61774.03;5015257;28;20051;-69
2021/03/23 09:58:20;;;;;;;14.48;9.48;;;;;;;-139.48;100.00;61774.03;5013926;28;20123;-69
2021/03/23 10:01:16;;;;;;;15.48;9.60;;;;;;;-139.48;100.00;61774.03;5014099;28;20125;-69
2021/03/23 10:04:03;;;;;;;17.20;9.63;;;;;;;-139.48;100.00;61774.03;5015330;28;20103;-67
2021/03/23 10:06:47;;;;;;;16.70;9.43;;;;;;;-139.48;100.00;61774.03;5014590;28;20574;-69
2021/03/23 10:09:34;;;;;;;14.65;9.70;;;;;;;-139.48;100.00;61774.03;5015195;28;20505;-68
2021/03/23 10:12:31;;;;;;;16.83;9.90;;;;;;;-139.48;100.00;61774.03;5013980;28;20053;-68
2021/03/23 10:15:18;;;;;;;17.35;9.93;;;;;;;-139.48;100.00;61774.03;5015110;28;20056;-68
2021/03/23 10:18:17;;;;;;;15.43;8.88;;;;;;;-139.48;100.00;61774.03;5014751;28;20052;-69
2021/03/23 10:21:10;;;;;;;16.02;9.52;;;;;;;-139.48;100.00;61774.03;5014852;28;20052;-69
2021/03/23 10:23:57;;;;;;;15.50;10.00;;;;;;;-139.48;100.00;61774.03;5013912;28;20096;-69
2021/03/23 10:26:46;;;;;;;14.50;9.95;;;;;;;-139.48;100.00;61774.03;4999562;28;20501;-67
2021/03/23 10:29:32;;;;;;;12.48;9.10;;;;;;;-139.48;100.00;61774.03;5013499;28;20593;-69
2021/03/23 10:32:29;;;;;;;15.73;9.55;;;;;;;-139.48;100.00;61774.03;5013523;28;20121;-69
2021/03/23 10:35:23;;;;;;;15.25;10.68;;;;;;;-139.48;100.00;61774.03;5013726;28;20088;-68
2021/03/23 10:38:19;;;;;;;14.20;10.38;;;;;;;-139.48;100.00;61774.03;5013303;28;20093;-69
2021/03/23 10:41:18;;;;;;;17.20;10.55;;;;;;;-139.48;100.00;61774.03;5013341;28;20112;-69
2021/03/23 10:44:17;;;;;;;17.00;10.40;;;;;;;-139.48;100.00;61774.03;5013551;28;20061;-69
2021/03/23 10:47:01;;;;;;;15.48;10.32;;;;;;;-139.48;100.00;61774.03;5013307;28;20048;-69
2021/03/23 10:49:44;;;;;;;15.30;10.13;;;;;;;-139.48;100.00;61774.03;4999311;28;20040;-69
2021/03/23 10:52:30;;;;;;;18.13;9.82;;;;;;;-139.48;100.00;61774.03;5013155;28;20096;-67
2021/03/23 10:55:48;;;;;;;14.23;9.75;;;;;;;-139.48;100.00;61774.03;5014169;28;20137;-68
2021/03/23 10:58:32;;;;;;;12.32;9.52;;;;;;;-139.48;100.00;61774.03;4980558;28;20176;-69
2021/03/23 11:01:20;;;;;;;13.23;8.63;;;;;;;-139.48;100.00;61774.03;5013277;28;20561;-69
2021/03/23 11:04:13;;;;;;;13.02;8.57;;;;;;;-139.48;100.00;61774.03;5014199;28;20048;-68
2021/03/23 11:07:18;;;;;;;12.30;8.38;;;;;;;-139.48;100.00;61774.03;5012977;28;20084;-69
2021/03/23 11:10:05;;;;;;;13.35;9.10;;;;;;;-139.48;100.00;61774.03;5014160;28;20052;-68
2021/03/23 11:12:50;;;;;;;11.73;8.77;;;;;;;-139.48;100.00;61774.03;5013169;28;20406;-69
2021/03/23 11:15:40;;;;;;;13.27;8.65;;;;;;;-139.48;100.00;61774.03;5013861;28;20099;-69
2021/03/23 11:18:33;;;;;;;15.43;8.38;;;;;;;-139.48;100.00;61774.03;5013889;28;20052;-69
2021/03/23 11:21:18;;;;;;;12.30;7.30;;;;;;;-139.48;100.00;61774.03;5013024;28;20128;-69
2021/03/23 11:24:05;;;;;;;11.70;7.93;;;;;;;-139.48;100.00;61774.03;5013936;28;20056;-68
2021/03/23 11:26:50;;;;;;;12.50;8.27;;;;;;;-139.48;100.00;61774.03;5012710;28;20116;-68
2021/03/23 11:29:34;;;;;;;10.60;7.57;;;;;;;-139.48;100.00;61774.03;5012893;28;20064;-68
2021/03/23 11:32:18;;;;;;;11.40;7.53;;;;;;;-139.48;100.00;61774.03;5012865;28;20057;-69
2021/03/23 11:35:02;;;;;;;13.68;8.70;;;;;;;-139.48;100.00;61774.03;5013833;28;20048;-68
2021/03/23 11:37:46;;;;;;;11.77;8.05;;;;;;;-139.48;100.00;61774.03;5012634;28;20104;-69
2021/03/23 11:40:30;;;;;;;11.73;8.63;;;;;;;-139.48;100.00;61774.03;5012741;28;20060;-68
2021/03/23 11:43:32;;;;;;;11.48;7.90;;;;;;;-139.48;100.00;61774.03;5013748;28;20057;-68
2021/03/23 11:46:37;;;;;;;10.95;7.90;;;;;;;-139.48;100.00;61774.03;4999062;28;20100;-68
2021/03/23 11:49:31;;;;;;;11.63;7.35;;;;;;;-139.48;100.00;61774.03;5012635;28;20521;-68
2021/03/23 11:52:16;;;;;;;13.13;7.90;;;;;;;-139.48;100.00;61774.03;5012775;28;20482;-65
2021/03/23 11:55:03;;;;;;;12.38;8.65;;;;;;;-139.48;100.00;61774.03;5012501;28;20097;-68
2021/03/23 11:57:48;;;;;;;15.07;9.35;;;;;;;-139.48;100.00;61774.03;5013019;28;20541;-68
2021/03/23 12:00:32;;;;;;;13.20;8.10;;;;;;;-139.48;100.00;61774.03;5012279;28;20108;-68
2021/03/23 12:03:16;;;;;;;14.95;8.15;;;;;;;-139.48;100.00;61774.03;5002273;28;20096;-68
2021/03/23 12:06:01;;;;;;;13.52;8.10;;;;;;;-139.48;100.00;61774.03;5017626;28;20195;-68
2021/03/23 12:08:47;;;;;;;12.55;7.65;;;;;;;-139.48;100.00;61774.03;5017206;28;20506;-68
2021/03/23 12:11:56;;;;;;;12.77;7.15;;;;;;;-139.48;100.00;61774.03;5016445;28;20075;-68
2021/03/23 12:14:50;;;;;;;15.18;8.02;;;;;;;-139.48;100.00;61774.03;5014710;28;20048;-65
2021/03/23 12:17:36;;;;;;;;;;;;;;;-139.48;100.00;61774.03;5016622;28;20044;-68
2021/03/23 12:20:23;;;;;;;12.57;7.55;;;;;;;-139.48;100.00;61774.03;5016202;28;19925;-68
2021/03/23 12:23:08;;;;;;;12.93;7.32;;;;;;;-139.48;100.00;61774.03;5015978;28;20438;-68
2021/03/23 12:25:54;;;;;;;12.15;7.65;;;;;;;-139.48;100.00;61774.03;5016062;28;20184;-68
2021/03/23 12:28:40;;;;;;;16.55;8.13;;;;;;;-139.48;100.00;61774.03;5015743;28;20113;-67
2021/03/23 12:31:24;;;;;;;11.65;7.95;;;;;;;-139.48;100.00;61774.03;5016019;28;20128;-68
2021/03/23 12:34:08;;;;;;;10.98;7.38;;;;;;;-139.48;100.00;61774.03;5015736;28;20053;-68
2021/03/23 12:36:52;;;;;;;13.38;8.27;;;;;;;-139.48;100.00;61774.03;5017018;28;20048;-68
2021/03/23 12:39:36;;;;;;;12.98;7.43;;;;;;;-139.48;100.00;61774.03;5015721;28;20069;-68
2021/03/23 12:42:25;;;;;;;13.52;8.32;;;;;;;-139.48;100.00;61774.03;5016483;28;20053;-68